Thunder radar more information blitzortung!


Radar de pluja more information rain snow radar


Visita la nostra xarxa de llocs de meteo:

Template documentation
and downloads

And another site



No particular awareness of the weather is required.    There are no Weather-warnings

Pagina Historial Weather Underground text

Diari Resum Agost 3, 2017 Unitats:  Mètric    Imperial   Tant
« Previous Dia
SegĂźent Dia »
Diari Setmana Mensual Anual Personalitzada
  Maxima: Minima: Media:
Temperatura: -17.8 °C -4.8 °C -0.6 °C
Punt de rosada: -17.8 °C -11.2 °C -8.7 °C
Humitat: Humidity % 29 % 42 %
Wind Speed: 0 km/h 0 km/h 10.1 km/h
RĂ fegues de vent: 0 km/h - -
Vent:- - SE
Pression baro: 0 hPa 34222.3 hPa -
Precipitacions: 0 mm    
Historical Graphs
 
 
Dades de taula per Agost 3, 2017
Temps Temperatura Punt de rosada Pression baro Vent Wind Speed RĂ fegues de vent Humitat Rainfall Rate (Hourly)
-17.8 °C -17.8 °C 0 hPa Calm     Humidity % 0 mm
00:01 -2.4 °C -9.1 °C 34361.1 hPa SW 6 km/h 6 km/h 48 % 0 mm
00:05 -3.9 °C -9.2 °C 34361.1 hPa Calm   5.1 km/h 56 % 0 mm
00:15 -4.1 °C -9.3 °C 34361.1 hPa WSW 5.1 km/h 5.1 km/h 56 % 0 mm
00:25 -4.2 °C -9.3 °C 34361.1 hPa Calm   7.7 km/h 57 % 0 mm
00:35 -4.2 °C -9.3 °C 34361.1 hPa SW 2.6 km/h 7.7 km/h 57 % 0 mm
00:45 -4.3 °C -9.2 °C 34361.1 hPa SW 2.6 km/h 5.1 km/h 58 % 0 mm
00:55 -4.3 °C -9.2 °C 34361.1 hPa Calm   5.1 km/h 58 % 0 mm
01:05 -4.3 °C -9.2 °C 34361.1 hPa West 5.1 km/h 7.7 km/h 58 % 0 mm
01:15 -4.2 °C -9.1 °C 34361.1 hPa West 2.6 km/h 5.1 km/h 58 % 0 mm
01:25 -4.2 °C -8.9 °C 34395 hPa West 2.6 km/h 5.1 km/h 59 % 0 mm
01:35 -4.3 °C -9 °C 34395 hPa North 2.6 km/h 2.6 km/h 59 % 0 mm
01:45 -4.3 °C -9 °C 34395 hPa Calm   2.6 km/h 59 % 0 mm
01:55 -4.4 °C -9.2 °C 34361.1 hPa Calm     59 % 0 mm
02:05 -4.4 °C -9 °C 34361.1 hPa Calm   2.6 km/h 60 % 0 mm
02:15 -4.7 °C -9.1 °C 34361.1 hPa WNW 2.6 km/h 5.1 km/h 61 % 0 mm
02:25 -4.8 °C -9.2 °C 34361.1 hPa WSW 2.6 km/h 5.1 km/h 61 % 0 mm
02:35 -4.6 °C -9.1 °C 34361.1 hPa WSW 5.1 km/h 5.1 km/h 61 % 0 mm
02:45 -4.6 °C -9.1 °C 34361.1 hPa WSW 5.1 km/h 7.7 km/h 61 % 0 mm
02:55 -4.4 °C -8.9 °C 34327.3 hPa WSW 2.6 km/h 5.1 km/h 61 % 0 mm
03:05 -4.2 °C -8.8 °C 34327.3 hPa WSW 5.1 km/h 7.7 km/h 60 % 0 mm
03:15 -3.9 °C -8.6 °C 34327.3 hPa SW 2.6 km/h 5.1 km/h 60 % 0 mm
03:25 -3.8 °C -8.7 °C 34327.3 hPa SW 5.1 km/h 7.7 km/h 58 % 0 mm
03:35 -3.6 °C -8.6 °C 34327.3 hPa SW 2.6 km/h 5.1 km/h 58 % 0 mm
03:45 -3.1 °C -8.1 °C 34327.3 hPa West 2.6 km/h 5.1 km/h 58 % 0 mm
03:55 -2.7 °C -8.1 °C 34327.3 hPa NNE 7.7 km/h 10.3 km/h 55 % 0 mm
04:05 -2.6 °C -8 °C 34327.3 hPa NNW 2.6 km/h 10.3 km/h 55 % 0 mm
04:15 -2.2 °C -7.8 °C 34327.3 hPa NW 2.6 km/h 7.7 km/h 54 % 0 mm
04:25 -1.9 °C -7.7 °C 34327.3 hPa NW 2.6 km/h 7.7 km/h 53 % 0 mm
04:35 -1.7 °C -7.6 °C 34327.3 hPa WNW 5.1 km/h 5.1 km/h 53 % 0 mm
04:45 -1.3 °C -7.7 °C 34327.3 hPa WNW 2.6 km/h 10.3 km/h 50 % 0 mm
04:55 -1 °C -7.6 °C 34327.3 hPa West 2.6 km/h 5.1 km/h 49 % 0 mm
05:05 -0.8 °C -7.4 °C 34327.3 hPa NNE 2.6 km/h 10.3 km/h 49 % 0 mm
05:15 -0.5 °C -7.6 °C 34327.3 hPa NNE 2.6 km/h 7.7 km/h 47 % 0 mm
05:25 -0.3 °C -7.3 °C 34327.3 hPa NNE 5.1 km/h 12.9 km/h 47 % 0 mm
05:35 0.3 °C -7.2 °C 34327.3 hPa NNE 2.6 km/h 5.1 km/h 45 % 0 mm
05:45 0.6 °C -7.3 °C 34327.3 hPa NNE 7.7 km/h 7.7 km/h 43 % 0 mm
10:54 0.8 °C -7.3 °C 34327.3 hPa WSW 9 km/h   42 % 0 mm
10:59 1.2 °C -7 °C 34327.3 hPa North 6 km/h 6 km/h 42 % 0 mm
11:04 1.1 °C -7.3 °C 34327.3 hPa North 9 km/h 9 km/h 41 % 0 mm
11:09 1.1 °C -7.3 °C 34327.3 hPa NE 6.3 km/h 6.3 km/h 41 % 0 mm
11:14 1.1 °C -7.3 °C 34327.3 hPa ENE 3.1 km/h 3.1 km/h 41 % 0 mm
11:19 1.4 °C -7 °C 34327.3 hPa North 6 km/h 6 km/h 41 % 0 mm
11:24 1.7 °C -7.2 °C 34327.3 hPa NNW 3.7 km/h   39 % 0 mm
11:29 1.8 °C -7.1 °C 34327.3 hPa NW 3.7 km/h 3.7 km/h 39 % 0 mm
11:34 1.8 °C -7.4 °C 34327.3 hPa ENE 6 km/h 6 km/h 38 % 0 mm
11:39 2.1 °C -7.3 °C 34327.3 hPa ESE 6 km/h 6 km/h 37 % 0 mm
11:44 2.2 °C -7.5 °C 34327.3 hPa ESE 6 km/h 6 km/h 36 % 0 mm
11:49 2.3 °C -7.1 °C 34327.3 hPa SW 6 km/h 6 km/h 37 % 0 mm
11:54 2.2 °C -7.7 °C 34327.3 hPa ESE 9 km/h 9 km/h 35 % 0 mm
11:59 2.3 °C -7.3 °C 34327.3 hPa South 11.9 km/h 11.9 km/h 36 % 0 mm
12:04 2.8 °C -7.4 °C 34327.3 hPa South 3.1 km/h 3.1 km/h 34 % 0 mm
12:09 2.7 °C -7.6 °C 34327.3 hPa SW 9 km/h 9 km/h 34 % 0 mm
12:14 2.4 °C -8.3 °C 34327.3 hPa ESE 15 km/h 15 km/h 32 % 0 mm
12:19 2.6 °C -8.2 °C 34293.4 hPa ENE 9 km/h 9 km/h 32 % 0 mm
12:24 2.7 °C -8.7 °C 34293.4 hPa ESE 15 km/h 15 km/h 30 % 0 mm
12:29 2.7 °C -8.7 °C 34293.4 hPa East 11.9 km/h 11.9 km/h 30 % 0 mm
12:34 3 °C -8.4 °C 34327.3 hPa WSW 9 km/h 9 km/h 30 % 0 mm
12:39 3.1 °C -8.7 °C 34327.3 hPa ENE 7.6 km/h 7.6 km/h 29 % 0 mm
12:44 3.1 °C -8.7 °C 34327.3 hPa East 11.9 km/h 11.9 km/h 29 % 0 mm
12:49 3.5 °C -8.3 °C 34327.3 hPa SSE 6 km/h 6 km/h 29 % 0 mm
12:54 3.2 °C -8.2 °C 34327.3 hPa East 23.8 km/h 23.8 km/h 30 % 0 mm
12:59 2.7 °C -7.3 °C 34327.3 hPa East 23.8 km/h 23.8 km/h 35 % 0 mm
13:04 2.1 °C -7.6 °C 34327.3 hPa ENE 26.9 km/h 26.9 km/h 36 % 0 mm
13:09 1.8 °C -7.4 °C 34327.3 hPa East 17.9 km/h 17.9 km/h 38 % 0 mm
13:14 1.7 °C -7 °C 34327.3 hPa ESE 20.9 km/h 20.9 km/h 40 % 0 mm
13:19 1.5 °C -6.7 °C 34293.4 hPa ESE 20.9 km/h 20.9 km/h 42 % 0 mm
13:24 1.6 °C -6.6 °C 34293.4 hPa ESE 29.8 km/h 29.8 km/h 42 % 0 mm
13:29 1.3 °C -6.7 °C 34293.4 hPa East 26.9 km/h 26.9 km/h 43 % 0 mm
13:34 1.2 °C -6.4 °C 34327.3 hPa ENE 48.4 km/h 48.4 km/h 45 % 0 mm
13:39 0.9 °C -6.4 °C 34327.3 hPa SE 39.4 km/h 39.4 km/h 46 % 0 mm
13:44 0.8 °C -6.6 °C 34327.3 hPa ESE 32.8 km/h 32.8 km/h 46 % 0 mm
13:49 0.8 °C -6.3 °C 34327.3 hPa ENE 20.9 km/h 20.9 km/h 47 % 0 mm
13:54 0.7 °C -6.3 °C 34327.3 hPa East 23.8 km/h 23.8 km/h 48 % 0 mm
13:59 0.5 °C -6.2 °C 34327.3 hPa East 20.9 km/h 20.9 km/h 49 % 0 mm
14:04 0.4 °C -6.1 °C 34327.3 hPa ESE 23.8 km/h 23.8 km/h 50 % 0 mm
14:09 0.6 °C -6.2 °C 34327.3 hPa NE 35.7 km/h 35.7 km/h 49 % 0 mm
14:14 0.1 °C -6.4 °C 34327.3 hPa ESE 29.8 km/h 29.8 km/h 50 % 0 mm
14:19 -0.2 °C -6.5 °C 34327.3 hPa ESE 41.7 km/h 41.7 km/h 51 % 0 mm
14:24 -0.1 °C -6.4 °C 34327.3 hPa NE 35.7 km/h 35.7 km/h 51 % 0 mm
14:25 -0.2 °C -6.5 °C 34327.3 hPa NNE 38.8 km/h 38.8 km/h 51 % 0 mm
14:30 -0.3 °C -6.4 °C 34327.3 hPa ENE 23.8 km/h 23.8 km/h 52 % 0 mm
14:35 -0.4 °C -6.6 °C 34327.3 hPa ENE 26.9 km/h 26.9 km/h 52 % 0 mm
14:40 -0.6 °C -6.4 °C 34327.3 hPa ESE 27.7 km/h 27.7 km/h 54 % 0 mm
14:45 -0.4 °C -6.2 °C 34327.3 hPa SSE 20.9 km/h 20.9 km/h 54 % 0 mm
14:50 -0.6 °C -6.3 °C 34293.4 hPa ENE 17.9 km/h 17.9 km/h 54 % 0 mm
14:55 -0.6 °C -6.3 °C 34293.4 hPa North 23.8 km/h 23.8 km/h 54 % 0 mm
15:00 -0.7 °C -6.3 °C 34293.4 hPa ENE 26.9 km/h 26.9 km/h 55 % 0 mm
15:05 -0.8 °C -6.3 °C 34327.3 hPa NE 20.9 km/h 20.9 km/h 55 % 0 mm
15:10 -0.8 °C -6.3 °C 34327.3 hPa ENE 20.9 km/h 20.9 km/h 55 % 0 mm
15:15 -0.8 °C -6.6 °C 34327.3 hPa NE 20.9 km/h 20.9 km/h 54 % 0 mm
15:20 -0.6 °C -6.4 °C 34327.3 hPa East 15 km/h 17.4 km/h 54 % 0 mm
15:25 -0.8 °C -6.9 °C 34327.3 hPa ESE 23.8 km/h 23.8 km/h 52 % 0 mm
15:30 -0.6 °C -7.3 °C 34327.3 hPa SE 32.8 km/h 32.8 km/h 49 % 0 mm
15:35 -0.5 °C -7.6 °C 34327.3 hPa ENE 32.8 km/h 32.8 km/h 47 % 0 mm
15:36 -0.5 °C -7.7 °C 34327.3 hPa East 32.8 km/h 32.8 km/h 46 % 0 mm
15:41 -0.2 °C -7.7 °C 34327.3 hPa East 15.3 km/h 15.3 km/h 45 % 0 mm
15:46 0 °C -7.7 °C 34327.3 hPa ESE 15 km/h 15 km/h 44 % 0 mm
15:51 0.1 °C -7.6 °C 34327.3 hPa ENE 20.9 km/h 20.9 km/h 44 % 0 mm
15:56 0.1 °C -7.7 °C 34327.3 hPa ENE 29 km/h 29 km/h 43 % 0 mm
16:01 0.3 °C -7.6 °C 34327.3 hPa East 20.9 km/h 20.9 km/h 43 % 0 mm
16:06 0.3 °C -7.6 °C 34327.3 hPa South 26.9 km/h 26.9 km/h 43 % 0 mm
16:11 0.1 °C -7.7 °C 34327.3 hPa SE 23.8 km/h 23.8 km/h 43 % 0 mm
16:16 0.3 °C -7.8 °C 34327.3 hPa ESE 28.2 km/h 28.2 km/h 42 % 0 mm
16:21 0.4 °C -7.7 °C 34327.3 hPa ENE 20.9 km/h 20.9 km/h 42 % 0 mm
16:26 0.6 °C -8 °C 34327.3 hPa East 17.9 km/h 17.9 km/h 40 % 0 mm
16:31 0.6 °C -7.9 °C 34327.3 hPa ENE 20.9 km/h 20.9 km/h 40 % 0 mm
16:36 0.8 °C -8.2 °C 34327.3 hPa ESE 22 km/h 22 km/h 38 % 0 mm
16:41 0.7 °C -8.1 °C 34327.3 hPa East 17.9 km/h 17.9 km/h 39 % 0 mm
16:46 0.7 °C -8.3 °C 34327.3 hPa ESE 22 km/h 22 km/h 38 % 0 mm
16:51 0.9 °C -8.2 °C 34327.3 hPa ESE 25.4 km/h 25.4 km/h 38 % 0 mm
16:56 0.9 °C -8.1 °C 34327.3 hPa ESE 23.8 km/h 23.8 km/h 38 % 0 mm
17:01 0.9 °C -7.9 °C 34293.4 hPa East 20.9 km/h 20.9 km/h 39 % 0 mm
17:06 0.9 °C -8.3 °C 34293.4 hPa ESE 27.7 km/h 27.7 km/h 37 % 0 mm
17:11 1.1 °C -7.9 °C 34293.4 hPa ESE 15 km/h 15 km/h 38 % 0 mm
17:16 1.1 °C -8 °C 34256.2 hPa NNE 20.9 km/h 20.9 km/h 38 % 0 mm
17:21 1 °C -8.1 °C 34256.2 hPa East 20.9 km/h 20.9 km/h 38 % 0 mm
17:26 1.2 °C -7.9 °C 34256.2 hPa ESE 17.9 km/h 17.9 km/h 38 % 0 mm
17:31 1.2 °C -7.9 °C 34293.4 hPa ESE 15 km/h 15 km/h 38 % 0 mm
17:36 1.2 °C -7.9 °C 34293.4 hPa ENE 17.9 km/h 17.9 km/h 38 % 0 mm
17:41 1.2 °C -7.9 °C 34293.4 hPa ENE 20.9 km/h 20.9 km/h 38 % 0 mm
17:46 1.3 °C -8.1 °C 34293.4 hPa East 9.3 km/h 9.3 km/h 37 % 0 mm
17:51 1.3 °C -8.1 °C 34293.4 hPa NE 14.5 km/h 14.5 km/h 37 % 0 mm
17:56 1.2 °C -8.1 °C 34293.4 hPa ENE 22.5 km/h 22.5 km/h 37 % 0 mm
18:01 1.2 °C -8.3 °C 34293.4 hPa East 20.9 km/h 20.9 km/h 36 % 0 mm
18:06 1.2 °C -8.6 °C 34293.4 hPa ESE 25.1 km/h 25.1 km/h 35 % 0 mm
18:11 1.2 °C -8.3 °C 34293.4 hPa ENE 15 km/h 15 km/h 36 % 0 mm
18:16 1.3 °C -8.5 °C 34293.4 hPa ENE 15 km/h 15 km/h 35 % 0 mm
18:21 1.4 °C -8.2 °C 34293.4 hPa ESE 19.6 km/h 19.6 km/h 36 % 0 mm
18:26 1.4 °C -8.7 °C 34293.4 hPa NE 15 km/h 15 km/h 34 % 0 mm
18:31 1.5 °C -8.3 °C 34256.2 hPa NW 6.3 km/h 6.3 km/h 35 % 0 mm
18:36 1.6 °C -8.2 °C 34256.2 hPa East 6.8 km/h   35 % 0 mm
18:41 1.5 °C -8.3 °C 34256.2 hPa West 9 km/h 9 km/h 35 % 0 mm
18:46 1.9 °C -8.5 °C 34256.2 hPa South 11.9 km/h 11.9 km/h 33 % 0 mm
18:51 2 °C -8.9 °C 34256.2 hPa South 11.9 km/h 11.9 km/h 31 % 0 mm
18:56 2.2 °C -8.8 °C 34256.2 hPa West 6 km/h 6 km/h 31 % 0 mm
19:01 2.3 °C -8.9 °C 34256.2 hPa SW 3.1 km/h 3.1 km/h 30 % 0 mm
19:06 2.1 °C -9.2 °C 34256.2 hPa SE 9 km/h 9 km/h 30 % 0 mm
19:11 1.9 °C -9.3 °C 34256.2 hPa East 4.2 km/h   30 % 0 mm
19:21 1.4 °C -9.2 °C 34222.3 hPa ESE 11.9 km/h 11.9 km/h 32 % 0 mm
19:25 -2 °C -10.9 °C 34293.4 hPa NNE 2.6 km/h 2.6 km/h 37 % 0 mm
19:26 1.3 °C -9.3 °C 34222.3 hPa ENE 17.9 km/h 17.9 km/h 32 % 0 mm
19:31 1.3 °C -9.6 °C 34256.2 hPa South 9 km/h 9.3 km/h 31 % 0 mm
19:35 -2.2 °C -11.2 °C 34293.4 hPa NE 2.6 km/h 5.1 km/h 37 % 0 mm
19:36 1.4 °C -9.2 °C 34256.2 hPa ESE 6.3 km/h 6.3 km/h 32 % 0 mm
19:41 1.3 °C -9.3 °C 34256.2 hPa ESE 11.9 km/h 11.9 km/h 32 % 0 mm
19:45 -2.4 °C -11.1 °C 34293.4 hPa Calm   5.1 km/h 38 % 0 mm
19:46 1.2 °C -9.7 °C 34256.2 hPa ESE 20.9 km/h 20.9 km/h 31 % 0 mm
19:51 1.1 °C -9.4 °C 34256.2 hPa ESE 19.6 km/h 19.6 km/h 32 % 0 mm
19:55 -2.6 °C -11 °C 34293.4 hPa ENE 2.6 km/h 7.7 km/h 39 % 0 mm
19:56 1.1 °C -9.2 °C 34256.2 hPa ENE 9 km/h 9 km/h 33 % 0 mm
20:01 1 °C -9.3 °C 34256.2 hPa ESE 11.9 km/h 11.9 km/h 33 % 0 mm
20:05 -2.8 °C -11.2 °C 34327.3 hPa Calm   5.1 km/h 39 % 0 mm
20:06 1.1 °C -9.2 °C 34256.2 hPa East 11.9 km/h 11.9 km/h 33 % 0 mm
20:11 0.9 °C -9.3 °C 34256.2 hPa East 9 km/h 9 km/h 33 % 0 mm
20:15 -2.8 °C -11 °C 34327.3 hPa NE 2.6 km/h 5.1 km/h 40 % 0 mm
20:16 0.9 °C -9.4 °C 34256.2 hPa East 6 km/h 6 km/h 33 % 0 mm
20:21 0.9 °C -9.4 °C 34256.2 hPa ESE 6 km/h 6 km/h 33 % 0 mm
20:25 -2.9 °C -10.9 °C 34293.4 hPa NNE 5.1 km/h 5.1 km/h 41 % 0 mm
20:26 0.9 °C -9.6 °C 34256.2 hPa Calm     32 % 0 mm
20:32 0.9 °C -9.6 °C 34256.2 hPa Calm     32 % 0 mm
20:35 -2.9 °C -10.7 °C 34327.3 hPa NE 2.6 km/h 5.1 km/h 42 % 0 mm
20:37 0.8 °C -9.7 °C 34256.2 hPa WNW 3.1 km/h   32 % 0 mm
20:42 0.8 °C -9.9 °C 34256.2 hPa WSW 6 km/h 6 km/h 31 % 0 mm
20:45 -3.1 °C -10.8 °C 34327.3 hPa ENE 2.6 km/h 7.7 km/h 42 % 0 mm
20:47 0.8 °C -10.2 °C 34256.2 hPa Calm     30 % 0 mm
20:52 0.8 °C -10.3 °C 34256.2 hPa Calm     30 % 0 mm
20:55 -3.2 °C -10.8 °C 34327.3 hPa Calm   5.1 km/h 43 % 0 mm
20:57 0.7 °C -10.4 °C 34256.2 hPa SW 3.7 km/h 3.7 km/h 30 % 0 mm
21:02 0.6 °C -10.7 °C 34256.2 hPa Calm     29 % 0 mm
21:05 -3.3 °C -10.7 °C 34327.3 hPa ENE 5.1 km/h 5.1 km/h 44 % 0 mm
21:07 0.6 °C -10.8 °C 34256.2 hPa Calm     29 % 0 mm
21:12 0.4 °C -10.3 °C 34256.2 hPa WNW 5.1 km/h   31 % 0 mm
21:15 -3.4 °C -10.8 °C 34327.3 hPa Calm     44 % 0 mm
21:17 0.4 °C -10.7 °C 34256.2 hPa Calm     30 % 0 mm
21:22 0.3 °C -10.7 °C 34256.2 hPa Calm     30 % 0 mm
21:25 -3.6 °C -10.1 °C 34327.3 hPa NE 2.6 km/h 5.1 km/h 48 % 0 mm
21:27 0.2 °C -10.8 °C 34256.2 hPa Calm     30 % 0 mm
21:32 0.1 °C -10.9 °C 34256.2 hPa North 3.1 km/h 3.1 km/h 30 % 0 mm
21:35 -3.7 °C -9.7 °C 34293.4 hPa NE 2.6 km/h 5.1 km/h 51 % 0 mm
21:37 0.1 °C -10.7 °C 34256.2 hPa NNW 3.1 km/h 3.1 km/h 31 % 0 mm
21:42 0 °C -10.9 °C 34256.2 hPa Calm     30 % 0 mm
21:45 -3.8 °C -9.5 °C 34293.4 hPa NE 2.6 km/h 5.1 km/h 53 % 0 mm
21:47 -0.1 °C -11 °C 34293.4 hPa Calm     30 % 0 mm
21:52 -0.1 °C -11.1 °C 34293.4 hPa Calm     30 % 0 mm
21:55 -3.9 °C -9.4 °C 34293.4 hPa ENE 5.1 km/h 5.1 km/h 54 % 0 mm
21:57 -0.1 °C -10.8 °C 34293.4 hPa NNW 3.1 km/h   31 % 0 mm
22:02 -0.2 °C -10.8 °C 34293.4 hPa Calm     31 % 0 mm
22:05 -4 °C -9.2 °C 34293.4 hPa NNE 2.6 km/h 7.7 km/h 56 % 0 mm
22:07 -0.3 °C -10.9 °C 34293.4 hPa Calm     31 % 0 mm
22:12 -0.3 °C -10.7 °C 34293.4 hPa Calm     32 % 0 mm
22:15 -4.1 °C -8.8 °C 34293.4 hPa NNE 2.6 km/h 5.1 km/h 59 % 0 mm
22:17 -0.4 °C -10.8 °C 34293.4 hPa NNW 3.1 km/h 3.7 km/h 32 % 0 mm
22:22 -0.5 °C -10.9 °C 34293.4 hPa NNW 3.1 km/h   32 % 0 mm
22:25 -4.2 °C -9.1 °C 34293.4 hPa NE 5.1 km/h 5.1 km/h 58 % 0 mm
22:27 -0.6 °C -10.9 °C 34293.4 hPa Calm     32 % 0 mm
22:32 -0.6 °C -10.7 °C 34293.4 hPa Calm     33 % 0 mm
22:35 -4.2 °C -8.9 °C 34293.4 hPa NNE 5.1 km/h 5.1 km/h 59 % 0 mm
22:37 -0.7 °C -10.8 °C 34293.4 hPa NNE 2.3 km/h   33 % 0 mm
22:42 -0.8 °C -10.8 °C 34293.4 hPa NNE 3.7 km/h 3.7 km/h 33 % 0 mm
22:45 -4.3 °C -8.8 °C 34293.4 hPa Calm   5.1 km/h 60 % 0 mm
22:47 -0.9 °C -10.9 °C 34293.4 hPa NNE 3.1 km/h   33 % 0 mm
22:52 -0.9 °C -10.7 °C 34293.4 hPa NNE 3.1 km/h   34 % 0 mm
22:55 -4.3 °C -8.8 °C 34293.4 hPa NE 2.6 km/h 5.1 km/h 61 % 0 mm
22:57 -1 °C -10.8 °C 34293.4 hPa NNE 3.1 km/h   34 % 0 mm
23:02 -1.1 °C -10.8 °C 34293.4 hPa Calm     34 % 0 mm
23:05 -4.4 °C -8.8 °C 34293.4 hPa NE 5.1 km/h 5.1 km/h 61 % 0 mm
23:07 -1.1 °C -10.9 °C 34293.4 hPa Calm     34 % 0 mm
23:12 -1.1 °C -10.9 °C 34293.4 hPa Calm     34 % 0 mm
23:15 -4.4 °C -8.7 °C 34293.4 hPa Calm   5.1 km/h 62 % 0 mm
23:17 -1.2 °C -10.7 °C 34293.4 hPa Calm     35 % 0 mm
23:22 -1.3 °C -10.8 °C 34293.4 hPa Calm     35 % 0 mm
23:25 -4.5 °C -8.7 °C 34327.3 hPa Calm     63 % 0 mm
23:27 -1.3 °C -10.8 °C 34293.4 hPa Calm     35 % 0 mm
23:32 -1.3 °C -10.8 °C 34293.4 hPa Calm     35 % 0 mm
23:35 -4.6 °C -8.6 °C 34327.3 hPa Calm   2.6 km/h 64 % 0 mm
23:37 -1.4 °C -10.9 °C 34293.4 hPa Calm     35 % 0 mm
23:42 -1.4 °C -10.9 °C 34293.4 hPa Calm     35 % 0 mm
23:45 -4.7 °C -8.7 °C 34327.3 hPa Calm     64 % 0 mm
23:47 -1.4 °C -10.9 °C 34293.4 hPa Calm     35 % 0 mm
23:52 -1.4 °C -10.9 °C 34293.4 hPa Calm     35 % 0 mm
23:55 -4.8 °C -8.8 °C 34327.3 hPa Calm     64 % 0 mm
23:57 -1.5 °C -10.9 °C 34293.4 hPa Calm     35 % 0 mm
Meteo Sesrovires
Elogis d' Weather Underground - 1.5 mb

Guio original per  Jim McMurry - jmcmurry@mwt.net Adaptat per a la plantilla per  Wim van der Kuil - Leuven-Template.eu

Trobareu la nostra informacio del temps tambe a:

Weather Underground

AWEKAS